Arusha, Tanzania

3:13 PM EAT on February 19, 2017 (GMT +0300)
Arusha | | Change Station

Elev 4514 ft 3.38 °S, 36.64 °E | Updated 49 seconds ago

Thunderstorm
Thunderstorm
70.1 °F
Feels Like 70.1 °F
N
0.0
Wind Variable Wind from ENE
Gusts 8.0 mph

Today
High -- | Low -- °F
--% Chance of Precip.
Yesterday
High -- | Low -- °F
Precip. -- in
Pressure 30.01 in
Visibility 6.2 miles
Clouds Mostly Cloudy 3400 ft
Few 3300 ft
Dew Point 65 °F
Humidity 85%
Rainfall 0.02 in
Snow Depth Not available.
6:41 AM 6:53 PM
Last Quarter, 44% visible
METAR HTAR 191100Z 30010KT 9999 TS BKN034 FEW033CB 27/17 Q1016
Pressure 30.01 in
Visibility 6.2 miles
Clouds Mostly Cloudy 3400 ft
Few 3300 ft
Dew Point 65 °F
Humidity 85%
Rainfall 0.02 in
Snow Depth Not available.
6:41 AM 6:53 PM
Last Quarter, 44% visible
METAR HTAR 191100Z 30010KT 9999 TS BKN034 FEW033CB 27/17 Q1016

Get Your Daily Forecast Email!

Thanks for signing up!

Be on the lookout for a verification email in your inbox.

You'll start receiving the daily forecast at 8 AM.

×

10-Day Weather Forecast

No radar image for this location.
×

Almanac

Astronomy

Feb. 19, 2017 Rise Set
Actual Time
Civil Twilight
Nautical Twilight
Astronomical Twilight
Moon
Length of Visible Light
Length of Day
Tomorrow will be .
, % of the Moon is Illuminated

Today's Extremes

Country Highs Country Lows

Community

WunderPhotos

Upload Photos

1,962,540 photos uploaded!

WunderBlog® & News

Nearby

Air Quality

  Air Quality AQ Index Pollutant
Not available.

Snow Depth

Station Depth Elevation

Earthquake Activity

City Distance Mag. Time & Date
Minimum magnitude displayed is 2.5.

Coastal Water Temperatures

Place Temperature

Stations

Nearby Weather Stations

Station Location Temp. Windchill Dew Point Humidity Wind Precip. Elev Updated Type